sensor_id;sensor_type;location;lat;lon;timestamp;pressure;altitude;pressure_sealevel;temperature;humidity
21956;BME280;11142;49.930;8.606;2023-04-27T00:00:47;100275.91;;;8.80;95.41
21956;BME280;11142;49.930;8.606;2023-04-27T00:03:16;100273.63;;;8.74;96.20
21956;BME280;11142;49.930;8.606;2023-04-27T00:05:44;100280.03;;;8.67;97.55
21956;BME280;11142;49.930;8.606;2023-04-27T00:08:14;100266.41;;;8.47;98.73
21956;BME280;11142;49.930;8.606;2023-04-27T00:10:42;100269.03;;;8.30;100.00
21956;BME280;11142;49.930;8.606;2023-04-27T00:13:10;100263.31;;;8.24;100.00
21956;BME280;11142;49.930;8.606;2023-04-27T00:15:39;100271.16;;;8.05;100.00
21956;BME280;11142;49.930;8.606;2023-04-27T00:18:07;100269.91;;;7.78;100.00
21956;BME280;11142;49.930;8.606;2023-04-27T00:20:38;100254.41;;;7.78;100.00
21956;BME280;11142;49.930;8.606;2023-04-27T00:23:07;100262.66;;;7.86;100.00
21956;BME280;11142;49.930;8.606;2023-04-27T00:25:36;100258.28;;;8.03;100.00
21956;BME280;11142;49.930;8.606;2023-04-27T00:28:05;100253.66;;;8.10;100.00
21956;BME280;11142;49.930;8.606;2023-04-27T00:30:35;100253.66;;;7.93;100.00
21956;BME280;11142;49.930;8.606;2023-04-27T00:33:03;100258.97;;;7.73;100.00
21956;BME280;11142;49.930;8.606;2023-04-27T00:35:31;100250.22;;;7.58;100.00
21956;BME280;11142;49.930;8.606;2023-04-27T00:38:01;100247.09;;;7.34;100.00
21956;BME280;11142;49.930;8.606;2023-04-27T00:40:32;100244.41;;;7.00;100.00
21956;BME280;11142;49.930;8.606;2023-04-27T00:43:02;100243.72;;;6.97;100.00
21956;BME280;11142;49.930;8.606;2023-04-27T00:45:30;100252.44;;;6.75;100.00
21956;BME280;11142;49.930;8.606;2023-04-27T00:47:59;100246.69;;;6.50;100.00
21956;BME280;11142;49.930;8.606;2023-04-27T00:50:29;100248.22;;;6.15;100.00
21956;BME280;11142;49.930;8.606;2023-04-27T00:52:57;100249.13;;;6.14;100.00
21956;BME280;11142;49.930;8.606;2023-04-27T00:55:27;100248.91;;;6.39;100.00
21956;BME280;11142;49.930;8.606;2023-04-27T00:57:56;100250.41;;;6.24;100.00
21956;BME280;11142;49.930;8.606;2023-04-27T01:00:25;100251.41;;;6.02;100.00
21956;BME280;11142;49.930;8.606;2023-04-27T01:02:54;100261.16;;;5.94;100.00
21956;BME280;11142;49.930;8.606;2023-04-27T01:05:23;100257.75;;;5.93;100.00
21956;BME280;11142;49.930;8.606;2023-04-27T01:07:52;100259.88;;;6.04;100.00
21956;BME280;11142;49.930;8.606;2023-04-27T01:10:20;100257.13;;;6.08;100.00
21956;BME280;11142;49.930;8.606;2023-04-27T01:12:48;100255.88;;;6.17;100.00
21956;BME280;11142;49.930;8.606;2023-04-27T01:15:16;100258.41;;;6.18;100.00
21956;BME280;11142;49.930;8.606;2023-04-27T01:17:46;100258.47;;;6.17;100.00
21956;BME280;11142;49.930;8.606;2023-04-27T01:20:15;100263.44;;;6.21;100.00
21956;BME280;11142;49.930;8.606;2023-04-27T01:22:45;100269.03;;;6.31;100.00
21956;BME280;11142;49.930;8.606;2023-04-27T01:25:15;100264.41;;;6.37;100.00
21956;BME280;11142;49.930;8.606;2023-04-27T01:27:43;100273.69;;;6.41;100.00
21956;BME280;11142;49.930;8.606;2023-04-27T01:30:11;100270.38;;;6.39;100.00
21956;BME280;11142;49.930;8.606;2023-04-27T01:32:39;100260.09;;;6.38;100.00
21956;BME280;11142;49.930;8.606;2023-04-27T01:35:08;100270.81;;;6.49;100.00
21956;BME280;11142;49.930;8.606;2023-04-27T01:37:36;100266.53;;;6.48;100.00
21956;BME280;11142;49.930;8.606;2023-04-27T01:40:05;100269.34;;;6.44;100.00
21956;BME280;11142;49.930;8.606;2023-04-27T01:42:34;100272.41;;;6.31;100.00
21956;BME280;11142;49.930;8.606;2023-04-27T01:45:02;100270.69;;;6.32;100.00
21956;BME280;11142;49.930;8.606;2023-04-27T01:47:31;100273.53;;;6.26;100.00
21956;BME280;11142;49.930;8.606;2023-04-27T01:49:59;100272.69;;;6.25;100.00
21956;BME280;11142;49.930;8.606;2023-04-27T01:52:27;100278.69;;;6.26;100.00
21956;BME280;11142;49.930;8.606;2023-04-27T01:55:12;100276.75;;;6.31;100.00
21956;BME280;11142;49.930;8.606;2023-04-27T01:57:42;100273.00;;;6.38;100.00
21956;BME280;11142;49.930;8.606;2023-04-27T02:00:11;100277.13;;;6.42;100.00
21956;BME280;11142;49.930;8.606;2023-04-27T02:02:50;100282.84;;;6.49;100.00
21956;BME280;11142;49.930;8.606;2023-04-27T02:05:21;100276.72;;;6.51;100.00
21956;BME280;11142;49.930;8.606;2023-04-27T02:07:51;100274.09;;;6.32;100.00
21956;BME280;11142;49.930;8.606;2023-04-27T02:10:21;100279.38;;;6.29;100.00
21956;BME280;11142;49.930;8.606;2023-04-27T02:12:55;100284.03;;;6.21;100.00
21956;BME280;11142;49.930;8.606;2023-04-27T02:15:24;100286.94;;;6.14;100.00
21956;BME280;11142;49.930;8.606;2023-04-27T02:17:52;100285.38;;;6.10;100.00
21956;BME280;11142;49.930;8.606;2023-04-27T02:20:20;100286.41;;;6.06;100.00
21956;BME280;11142;49.930;8.606;2023-04-27T02:22:48;100286.91;;;5.94;100.00
21956;BME280;11142;49.930;8.606;2023-04-27T02:25:17;100290.72;;;5.83;100.00
21956;BME280;11142;49.930;8.606;2023-04-27T02:27:45;100287.00;;;5.92;100.00
21956;BME280;11142;49.930;8.606;2023-04-27T02:30:15;100286.28;;;5.88;100.00
21956;BME280;11142;49.930;8.606;2023-04-27T02:32:44;100295.19;;;5.80;100.00
21956;BME280;11142;49.930;8.606;2023-04-27T02:35:13;100292.28;;;5.67;100.00
21956;BME280;11142;49.930;8.606;2023-04-27T02:37:41;100295.06;;;5.61;100.00
21956;BME280;11142;49.930;8.606;2023-04-27T02:40:09;100291.84;;;5.56;100.00
21956;BME280;11142;49.930;8.606;2023-04-27T02:42:37;100299.03;;;5.70;100.00
21956;BME280;11142;49.930;8.606;2023-04-27T02:45:06;100308.34;;;5.72;100.00
21956;BME280;11142;49.930;8.606;2023-04-27T02:47:36;100307.59;;;5.70;100.00
21956;BME280;11142;49.930;8.606;2023-04-27T02:50:05;100312.28;;;5.61;100.00
21956;BME280;11142;49.930;8.606;2023-04-27T02:52:34;100295.38;;;5.54;100.00
21956;BME280;11142;49.930;8.606;2023-04-27T02:55:02;100294.06;;;5.44;100.00
21956;BME280;11142;49.930;8.606;2023-04-27T02:57:30;100295.50;;;5.29;100.00
21956;BME280;11142;49.930;8.606;2023-04-27T02:59:58;100296.22;;;5.32;100.00
21956;BME280;11142;49.930;8.606;2023-04-27T03:02:29;100295.06;;;5.40;100.00
21956;BME280;11142;49.930;8.606;2023-04-27T03:04:59;100290.25;;;5.32;100.00
21956;BME280;11142;49.930;8.606;2023-04-27T03:07:28;100287.00;;;5.27;100.00
21956;BME280;11142;49.930;8.606;2023-04-27T03:09:57;100295.44;;;5.30;100.00
21956;BME280;11142;49.930;8.606;2023-04-27T03:12:28;100281.84;;;5.27;100.00
21956;BME280;11142;49.930;8.606;2023-04-27T03:14:58;100286.34;;;5.22;100.00
21956;BME280;11142;49.930;8.606;2023-04-27T03:17:26;100292.13;;;5.27;100.00
21956;BME280;11142;49.930;8.606;2023-04-27T03:19:55;100286.38;;;5.20;100.00
21956;BME280;11142;49.930;8.606;2023-04-27T03:22:25;100282.16;;;5.19;100.00
21956;BME280;11142;49.930;8.606;2023-04-27T03:24:53;100287.00;;;5.27;100.00
21956;BME280;11142;49.930;8.606;2023-04-27T03:27:21;100285.69;;;5.17;100.00
21956;BME280;11142;49.930;8.606;2023-04-27T03:29:50;100283.16;;;5.15;100.00
21956;BME280;11142;49.930;8.606;2023-04-27T03:32:18;100292.03;;;5.30;100.00
21956;BME280;11142;49.930;8.606;2023-04-27T03:34:47;100286.09;;;5.28;100.00
21956;BME280;11142;49.930;8.606;2023-04-27T03:37:16;100289.81;;;5.43;100.00
21956;BME280;11142;49.930;8.606;2023-04-27T03:39:46;100285.34;;;5.48;100.00
21956;BME280;11142;49.930;8.606;2023-04-27T03:42:14;100286.41;;;5.64;100.00
21956;BME280;11142;49.930;8.606;2023-04-27T03:44:42;100278.72;;;5.62;100.00
21956;BME280;11142;49.930;8.606;2023-04-27T03:47:11;100273.25;;;5.50;100.00
21956;BME280;11142;49.930;8.606;2023-04-27T03:49:39;100272.16;;;5.33;100.00
21956;BME280;11142;49.930;8.606;2023-04-27T03:52:07;100279.13;;;5.31;100.00
21956;BME280;11142;49.930;8.606;2023-04-27T03:54:35;100279.50;;;5.43;100.00
21956;BME280;11142;49.930;8.606;2023-04-27T03:57:05;100286.66;;;5.58;100.00
21956;BME280;11142;49.930;8.606;2023-04-27T03:59:34;100295.53;;;5.71;100.00
21956;BME280;11142;49.930;8.606;2023-04-27T04:02:02;100297.63;;;5.83;100.00
21956;BME280;11142;49.930;8.606;2023-04-27T04:04:32;100289.38;;;5.75;100.00
21956;BME280;11142;49.930;8.606;2023-04-27T04:07:01;100297.78;;;5.80;100.00
21956;BME280;11142;49.930;8.606;2023-04-27T04:09:29;100286.03;;;5.95;100.00
21956;BME280;11142;49.930;8.606;2023-04-27T04:11:58;100294.78;;;6.11;100.00
21956;BME280;11142;49.930;8.606;2023-04-27T04:14:29;100289.78;;;6.08;100.00
21956;BME280;11142;49.930;8.606;2023-04-27T04:16:59;100291.25;;;6.13;100.00
21956;BME280;11142;49.930;8.606;2023-04-27T04:19:27;100297.81;;;6.20;100.00
21956;BME280;11142;49.930;8.606;2023-04-27T04:21:56;100290.09;;;6.40;100.00
21956;BME280;11142;49.930;8.606;2023-04-27T04:24:25;100294.41;;;6.40;100.00
21956;BME280;11142;49.930;8.606;2023-04-27T04:26:53;100295.47;;;6.34;100.00
21956;BME280;11142;49.930;8.606;2023-04-27T04:29:22;100295.13;;;6.23;100.00
21956;BME280;11142;49.930;8.606;2023-04-27T04:31:53;100295.03;;;6.25;100.00
21956;BME280;11142;49.930;8.606;2023-04-27T04:34:22;100304.53;;;6.24;100.00
21956;BME280;11142;49.930;8.606;2023-04-27T04:36:51;100303.47;;;6.49;100.00
21956;BME280;11142;49.930;8.606;2023-04-27T04:39:23;100296.97;;;6.40;100.00
21956;BME280;11142;49.930;8.606;2023-04-27T04:41:52;100286.19;;;6.51;100.00
21956;BME280;11142;49.930;8.606;2023-04-27T04:44:23;100291.03;;;6.77;100.00
21956;BME280;11142;49.930;8.606;2023-04-27T04:46:52;100296.72;;;7.04;100.00
21956;BME280;11142;49.930;8.606;2023-04-27T04:49:24;100298.31;;;7.06;100.00
21956;BME280;11142;49.930;8.606;2023-04-27T04:51:52;100301.03;;;7.03;100.00
21956;BME280;11142;49.930;8.606;2023-04-27T04:54:20;100308.25;;;6.95;100.00
21956;BME280;11142;49.930;8.606;2023-04-27T04:56:48;100308.69;;;6.86;100.00
21956;BME280;11142;49.930;8.606;2023-04-27T04:59:17;100308.69;;;6.86;100.00
21956;BME280;11142;49.930;8.606;2023-04-27T05:01:45;100307.91;;;6.45;100.00
21956;BME280;11142;49.930;8.606;2023-04-27T05:04:15;100315.78;;;6.02;100.00
21956;BME280;11142;49.930;8.606;2023-04-27T05:06:44;100315.00;;;6.00;100.00
21956;BME280;11142;49.930;8.606;2023-04-27T05:09:12;100310.84;;;6.17;100.00
21956;BME280;11142;49.930;8.606;2023-04-27T05:11:41;100309.38;;;5.90;100.00
21956;BME280;11142;49.930;8.606;2023-04-27T05:14:09;100307.72;;;6.09;100.00
21956;BME280;11142;49.930;8.606;2023-04-27T05:16:37;100310.03;;;6.15;100.00
21956;BME280;11142;49.930;8.606;2023-04-27T05:19:05;100326.41;;;6.34;100.00
21956;BME280;11142;49.930;8.606;2023-04-27T05:21:35;100332.34;;;6.36;100.00
21956;BME280;11142;49.930;8.606;2023-04-27T05:24:03;100333.00;;;6.80;100.00
21956;BME280;11142;49.930;8.606;2023-04-27T05:26:31;100334.06;;;6.95;100.00
21956;BME280;11142;49.930;8.606;2023-04-27T05:29:01;100336.16;;;6.87;100.00
21956;BME280;11142;49.930;8.606;2023-04-27T05:31:39;100340.16;;;6.94;100.00
21956;BME280;11142;49.930;8.606;2023-04-27T05:34:08;100343.50;;;7.15;100.00
21956;BME280;11142;49.930;8.606;2023-04-27T05:36:38;100341.91;;;7.12;100.00
21956;BME280;11142;49.930;8.606;2023-04-27T05:39:06;100342.59;;;7.34;100.00
21956;BME280;11142;49.930;8.606;2023-04-27T05:41:34;100351.34;;;7.49;100.00
21956;BME280;11142;49.930;8.606;2023-04-27T05:44:02;100351.91;;;7.56;100.00
21956;BME280;11142;49.930;8.606;2023-04-27T05:46:31;100349.84;;;7.26;100.00
21956;BME280;11142;49.930;8.606;2023-04-27T05:49:00;100354.47;;;7.38;100.00
21956;BME280;11142;49.930;8.606;2023-04-27T05:51:29;100349.94;;;7.96;100.00
21956;BME280;11142;49.930;8.606;2023-04-27T05:54:01;100343.19;;;7.94;100.00
21956;BME280;11142;49.930;8.606;2023-04-27T05:56:29;100343.94;;;7.79;100.00
21956;BME280;11142;49.930;8.606;2023-04-27T05:58:57;100346.97;;;8.40;100.00
21956;BME280;11142;49.930;8.606;2023-04-27T06:01:28;100348.00;;;9.03;100.00
21956;BME280;11142;49.930;8.606;2023-04-27T06:03:56;100357.03;;;9.27;96.20
21956;BME280;11142;49.930;8.606;2023-04-27T06:06:29;100354.44;;;9.43;93.27
21956;BME280;11142;49.930;8.606;2023-04-27T06:08:57;100363.16;;;8.93;92.50
21956;BME280;11142;49.930;8.606;2023-04-27T06:11:27;100361.66;;;8.72;100.00
21956;BME280;11142;49.930;8.606;2023-04-27T06:13:56;100368.00;;;8.67;100.00
21956;BME280;11142;49.930;8.606;2023-04-27T06:16:24;100369.81;;;9.46;94.60
21956;BME280;11142;49.930;8.606;2023-04-27T06:18:53;100363.94;;;9.11;96.69
21956;BME280;11142;49.930;8.606;2023-04-27T06:21:22;100374.91;;;9.79;87.72
21956;BME280;11142;49.930;8.606;2023-04-27T06:23:51;100381.34;;;9.72;85.67
21956;BME280;11142;49.930;8.606;2023-04-27T06:26:19;100385.59;;;9.26;86.08
21956;BME280;11142;49.930;8.606;2023-04-27T06:28:50;100375.69;;;9.01;89.75
21956;BME280;11142;49.930;8.606;2023-04-27T06:31:20;100374.13;;;9.77;84.81
21956;BME280;11142;49.930;8.606;2023-04-27T06:33:48;100385.88;;;10.73;78.98
21956;BME280;11142;49.930;8.606;2023-04-27T06:36:17;100386.00;;;11.28;72.99
21956;BME280;11142;49.930;8.606;2023-04-27T06:38:45;100389.31;;;12.12;66.45
21956;BME280;11142;49.930;8.606;2023-04-27T06:41:14;100397.84;;;12.53;62.69
21956;BME280;11142;49.930;8.606;2023-04-27T06:43:43;100393.38;;;12.03;62.97
21956;BME280;11142;49.930;8.606;2023-04-27T06:46:13;100393.38;;;11.62;63.74
21956;BME280;11142;49.930;8.606;2023-04-27T06:48:42;100390.06;;;11.04;65.31
21956;BME280;11142;49.930;8.606;2023-04-27T06:51:11;100387.63;;;10.73;67.87
21956;BME280;11142;49.930;8.606;2023-04-27T06:53:39;100389.75;;;10.66;68.29
21956;BME280;11142;49.930;8.606;2023-04-27T06:56:10;100387.09;;;11.38;66.07
21956;BME280;11142;49.930;8.606;2023-04-27T06:58:38;100388.94;;;11.36;66.10
21956;BME280;11142;49.930;8.606;2023-04-27T07:01:08;100391.75;;;11.88;64.24
21956;BME280;11142;49.930;8.606;2023-04-27T07:03:38;100391.19;;;11.83;64.63
21956;BME280;11142;49.930;8.606;2023-04-27T07:06:07;100397.09;;;12.26;62.38
21956;BME280;11142;49.930;8.606;2023-04-27T07:08:36;100391.19;;;13.50;57.37
21956;BME280;11142;49.930;8.606;2023-04-27T07:11:04;100386.63;;;13.41;54.40
21956;BME280;11142;49.930;8.606;2023-04-27T07:13:33;100387.50;;;13.89;52.28
21956;BME280;11142;49.930;8.606;2023-04-27T07:16:02;100392.66;;;14.25;51.44
21956;BME280;11142;49.930;8.606;2023-04-27T07:18:30;100392.44;;;14.52;50.28
21956;BME280;11142;49.930;8.606;2023-04-27T07:21:00;100394.63;;;15.36;48.92
21956;BME280;11142;49.930;8.606;2023-04-27T07:23:28;100402.34;;;13.52;50.94
21956;BME280;11142;49.930;8.606;2023-04-27T07:25:57;100395.19;;;13.67;49.83
21956;BME280;11142;49.930;8.606;2023-04-27T07:28:26;100397.53;;;14.06;49.82
21956;BME280;11142;49.930;8.606;2023-04-27T07:30:55;100392.56;;;14.73;49.43
21956;BME280;11142;49.930;8.606;2023-04-27T07:33:24;100395.56;;;15.46;45.08
21956;BME280;11142;49.930;8.606;2023-04-27T07:35:53;100391.91;;;16.03;43.78
21956;BME280;11142;49.930;8.606;2023-04-27T07:38:23;100393.97;;;16.93;41.85
21956;BME280;11142;49.930;8.606;2023-04-27T07:40:52;100388.94;;;17.90;40.86
21956;BME280;11142;49.930;8.606;2023-04-27T07:43:20;100384.22;;;17.05;39.15
21956;BME280;11142;49.930;8.606;2023-04-27T07:45:49;100388.91;;;15.42;41.51
21956;BME280;11142;49.930;8.606;2023-04-27T07:48:17;100392.16;;;15.57;42.44
21956;BME280;11142;49.930;8.606;2023-04-27T07:50:46;100383.84;;;14.96;44.60
21956;BME280;11142;49.930;8.606;2023-04-27T07:53:14;100393.66;;;14.70;43.46
21956;BME280;11142;49.930;8.606;2023-04-27T07:55:43;100389.16;;;15.39;43.38
21956;BME280;11142;49.930;8.606;2023-04-27T07:58:11;100382.28;;;17.07;41.11
21956;BME280;11142;49.930;8.606;2023-04-27T08:00:40;100388.91;;;17.41;39.16
21956;BME280;11142;49.930;8.606;2023-04-27T08:03:08;100383.41;;;17.34;38.17
21956;BME280;11142;49.930;8.606;2023-04-27T08:05:36;100388.06;;;17.00;38.01
21956;BME280;11142;49.930;8.606;2023-04-27T08:08:05;100388.09;;;16.59;38.46
21956;BME280;11142;49.930;8.606;2023-04-27T08:10:34;100383.44;;;17.14;39.51
21956;BME280;11142;49.930;8.606;2023-04-27T08:13:05;100394.63;;;15.58;40.84
21956;BME280;11142;49.930;8.606;2023-04-27T08:15:35;100385.94;;;14.80;43.80
21956;BME280;11142;49.930;8.606;2023-04-27T08:18:03;100373.50;;;15.28;42.67
21956;BME280;11142;49.930;8.606;2023-04-27T08:20:31;100375.16;;;15.18;43.44
21956;BME280;11142;49.930;8.606;2023-04-27T08:22:59;100375.00;;;16.59;40.82
21956;BME280;11142;49.930;8.606;2023-04-27T08:25:28;100378.03;;;17.45;37.80
21956;BME280;11142;49.930;8.606;2023-04-27T08:27:56;100377.88;;;17.87;38.41
21956;BME280;11142;49.930;8.606;2023-04-27T08:30:26;100377.44;;;17.72;37.64
21956;BME280;11142;49.930;8.606;2023-04-27T08:32:54;100390.03;;;16.57;38.55
21956;BME280;11142;49.930;8.606;2023-04-27T08:35:22;100377.59;;;14.75;41.81
21956;BME280;11142;49.930;8.606;2023-04-27T08:37:51;100373.00;;;15.23;42.23
21956;BME280;11142;49.930;8.606;2023-04-27T08:40:20;100365.28;;;15.43;43.45
21956;BME280;11142;49.930;8.606;2023-04-27T08:42:54;100363.31;;;16.93;39.54
21956;BME280;11142;49.930;8.606;2023-04-27T08:45:22;100373.13;;;16.29;39.21
21956;BME280;11142;49.930;8.606;2023-04-27T08:47:52;100367.88;;;16.50;39.80
21956;BME280;11142;49.930;8.606;2023-04-27T08:50:21;100362.56;;;16.20;40.27
21956;BME280;11142;49.930;8.606;2023-04-27T08:52:49;100382.13;;;16.05;39.42
21956;BME280;11142;49.930;8.606;2023-04-27T08:55:17;100368.00;;;15.64;40.09
21956;BME280;11142;49.930;8.606;2023-04-27T08:57:55;100375.94;;;16.06;42.02
21956;BME280;11142;49.930;8.606;2023-04-27T09:00:23;100376.94;;;17.08;38.80
21956;BME280;11142;49.930;8.606;2023-04-27T09:02:53;100373.47;;;18.26;38.95
21956;BME280;11142;49.930;8.606;2023-04-27T09:05:23;100387.84;;;18.12;36.69
21956;BME280;11142;49.930;8.606;2023-04-27T09:07:58;100381.47;;;16.55;40.21
21956;BME280;11142;49.930;8.606;2023-04-27T09:10:26;100372.63;;;17.96;38.28
21956;BME280;11142;49.930;8.606;2023-04-27T09:12:56;100383.34;;;17.55;37.63
21956;BME280;11142;49.930;8.606;2023-04-27T09:15:24;100375.06;;;17.29;39.28
21956;BME280;11142;49.930;8.606;2023-04-27T09:17:54;100367.63;;;18.70;38.26
21956;BME280;11142;49.930;8.606;2023-04-27T09:20:23;100371.19;;;20.58;34.73
21956;BME280;11142;49.930;8.606;2023-04-27T09:22:53;100369.03;;;21.05;33.02
21956;BME280;11142;49.930;8.606;2023-04-27T09:25:25;100374.31;;;19.83;33.53
21956;BME280;11142;49.930;8.606;2023-04-27T09:27:53;100368.59;;;19.70;35.12
21956;BME280;11142;49.930;8.606;2023-04-27T09:30:21;100362.97;;;19.01;34.26
21956;BME280;11142;49.930;8.606;2023-04-27T09:32:50;100361.97;;;16.69;37.39
21956;BME280;11142;49.930;8.606;2023-04-27T09:35:21;100353.97;;;17.31;40.12
21956;BME280;11142;49.930;8.606;2023-04-27T09:37:52;100360.31;;;16.15;39.30
21956;BME280;11142;49.930;8.606;2023-04-27T09:40:20;100353.41;;;15.51;40.24
21956;BME280;11142;49.930;8.606;2023-04-27T09:42:52;100351.97;;;17.14;39.05
21956;BME280;11142;49.930;8.606;2023-04-27T09:45:21;100348.91;;;16.78;38.36
21956;BME280;11142;49.930;8.606;2023-04-27T09:47:50;100344.16;;;18.01;37.53
21956;BME280;11142;49.930;8.606;2023-04-27T09:50:18;100347.31;;;20.17;34.42
21956;BME280;11142;49.930;8.606;2023-04-27T09:52:48;100347.31;;;21.11;33.68
21956;BME280;11142;49.930;8.606;2023-04-27T09:55:17;100346.25;;;21.38;31.82
21956;BME280;11142;49.930;8.606;2023-04-27T09:57:50;100353.19;;;19.75;33.07
21956;BME280;11142;49.930;8.606;2023-04-27T10:00:24;100342.22;;;21.68;31.34
21956;BME280;11142;49.930;8.606;2023-04-27T10:02:59;100344.09;;;23.19;27.95
21956;BME280;11142;49.930;8.606;2023-04-27T10:05:35;100335.28;;;22.88;29.03
21956;BME280;11142;49.930;8.606;2023-04-27T10:08:07;100340.78;;;20.46;31.07
21956;BME280;11142;49.930;8.606;2023-04-27T10:10:45;100332.59;;;19.06;33.19
21956;BME280;11142;49.930;8.606;2023-04-27T10:13:20;100339.78;;;21.25;31.65
21956;BME280;11142;49.930;8.606;2023-04-27T10:15:49;100344.69;;;23.46;28.71
21956;BME280;11142;49.930;8.606;2023-04-27T10:18:24;100344.25;;;26.22;25.13
21956;BME280;11142;49.930;8.606;2023-04-27T10:20:53;100344.34;;;26.63;24.69
21956;BME280;11142;49.930;8.606;2023-04-27T10:23:23;100355.38;;;27.76;23.38
21956;BME280;11142;49.930;8.606;2023-04-27T10:25:51;100345.78;;;29.50;23.14
21956;BME280;11142;49.930;8.606;2023-04-27T10:28:20;100339.97;;;29.09;21.03
21956;BME280;11142;49.930;8.606;2023-04-27T10:30:48;100346.63;;;28.61;21.13
21956;BME280;11142;49.930;8.606;2023-04-27T10:33:17;100346.03;;;30.12;21.10
21956;BME280;11142;49.930;8.606;2023-04-27T10:35:52;100356.69;;;32.18;19.43
21956;BME280;11142;49.930;8.606;2023-04-27T10:38:26;100345.56;;;31.73;19.68
21956;BME280;11142;49.930;8.606;2023-04-27T10:40:55;100339.00;;;31.39;18.73
21956;BME280;11142;49.930;8.606;2023-04-27T10:43:24;100332.94;;;30.53;19.71
21956;BME280;11142;49.930;8.606;2023-04-27T10:45:53;100336.63;;;31.13;18.48
21956;BME280;11142;49.930;8.606;2023-04-27T10:48:21;100329.56;;;29.45;20.08
21956;BME280;11142;49.930;8.606;2023-04-27T10:50:49;100333.41;;;30.68;20.28
21956;BME280;11142;49.930;8.606;2023-04-27T10:53:18;100335.69;;;28.95;19.69
21956;BME280;11142;49.930;8.606;2023-04-27T10:55:53;100335.75;;;28.29;21.08
21956;BME280;11142;49.930;8.606;2023-04-27T10:58:21;100330.41;;;28.56;21.19
21956;BME280;11142;49.930;8.606;2023-04-27T11:00:57;100322.91;;;24.93;23.58
21956;BME280;11142;49.930;8.606;2023-04-27T11:03:25;100316.19;;;24.39;24.77
21956;BME280;11142;49.930;8.606;2023-04-27T11:05:58;100317.38;;;23.91;25.51
21956;BME280;11142;49.930;8.606;2023-04-27T11:08:26;100320.19;;;26.92;23.26
21956;BME280;11142;49.930;8.606;2023-04-27T11:10:57;100322.66;;;29.18;21.32
21956;BME280;11142;49.930;8.606;2023-04-27T11:13:25;100322.41;;;29.39;19.90
21956;BME280;11142;49.930;8.606;2023-04-27T11:15:53;100309.63;;;24.12;24.91
21956;BME280;11142;49.930;8.606;2023-04-27T11:18:22;100309.13;;;27.42;24.00
21956;BME280;11142;49.930;8.606;2023-04-27T11:20:51;100316.34;;;30.63;20.31
21956;BME280;11142;49.930;8.606;2023-04-27T11:23:23;100303.88;;;29.38;20.33
21956;BME280;11142;49.930;8.606;2023-04-27T11:25:52;100303.00;;;30.07;20.73
21956;BME280;11142;49.930;8.606;2023-04-27T11:28:22;100310.03;;;28.61;20.69
21956;BME280;11142;49.930;8.606;2023-04-27T11:30:56;100297.63;;;24.68;24.31
21956;BME280;11142;49.930;8.606;2023-04-27T11:33:25;100297.47;;;21.08;28.40
21956;BME280;11142;49.930;8.606;2023-04-27T11:35:53;100297.16;;;24.35;26.01
21956;BME280;11142;49.930;8.606;2023-04-27T11:38:22;100299.59;;;25.24;24.75
21956;BME280;11142;49.930;8.606;2023-04-27T11:40:59;100294.00;;;22.47;27.11
21956;BME280;11142;49.930;8.606;2023-04-27T11:43:29;100284.13;;;22.24;28.75
21956;BME280;11142;49.930;8.606;2023-04-27T11:45:57;100283.81;;;24.87;25.79
21956;BME280;11142;49.930;8.606;2023-04-27T11:48:29;100284.75;;;23.37;26.84
21956;BME280;11142;49.930;8.606;2023-04-27T11:50:57;100290.06;;;24.27;25.20
21956;BME280;11142;49.930;8.606;2023-04-27T11:53:30;100281.94;;;21.55;28.42
21956;BME280;11142;49.930;8.606;2023-04-27T11:55:59;100275.50;;;20.66;29.97
21956;BME280;11142;49.930;8.606;2023-04-27T11:58:31;100273.78;;;20.91;30.46
21956;BME280;11142;49.930;8.606;2023-04-27T12:00:59;100276.91;;;24.49;26.71
21956;BME280;11142;49.930;8.606;2023-04-27T12:03:27;100274.50;;;26.95;22.95
21956;BME280;11142;49.930;8.606;2023-04-27T12:05:56;100275.97;;;28.50;22.38
21956;BME280;11142;49.930;8.606;2023-04-27T12:08:44;100285.25;;;28.08;21.84
21956;BME280;11142;49.930;8.606;2023-04-27T12:11:13;100277.66;;;27.18;22.02
21956;BME280;11142;49.930;8.606;2023-04-27T12:13:42;100268.56;;;28.52;21.37
21956;BME280;11142;49.930;8.606;2023-04-27T12:16:10;100281.84;;;32.56;18.40
21956;BME280;11142;49.930;8.606;2023-04-27T12:18:39;100272.25;;;33.85;17.64
21956;BME280;11142;49.930;8.606;2023-04-27T12:21:07;100280.66;;;34.22;16.92
21956;BME280;11142;49.930;8.606;2023-04-27T12:23:36;100267.00;;;30.27;18.40
21956;BME280;11142;49.930;8.606;2023-04-27T12:26:04;100261.44;;;29.48;19.97
21956;BME280;11142;49.930;8.606;2023-04-27T12:28:32;100258.34;;;32.40;18.27
21956;BME280;11142;49.930;8.606;2023-04-27T12:31:02;100252.84;;;33.10;17.27
21956;BME280;11142;49.930;8.606;2023-04-27T12:33:30;100267.78;;;35.86;15.97
21956;BME280;11142;49.930;8.606;2023-04-27T12:35:59;100260.69;;;37.21;15.14
21956;BME280;11142;49.930;8.606;2023-04-27T12:38:26;100257.47;;;37.44;14.82
21956;BME280;11142;49.930;8.606;2023-04-27T12:40:55;100258.56;;;38.19;14.45
21956;BME280;11142;49.930;8.606;2023-04-27T12:43:22;100255.00;;;38.49;13.93
21956;BME280;11142;49.930;8.606;2023-04-27T12:45:51;100248.97;;;33.96;16.18
21956;BME280;11142;49.930;8.606;2023-04-27T12:48:20;100243.81;;;33.16;16.59
21956;BME280;11142;49.930;8.606;2023-04-27T12:50:49;100237.00;;;30.62;18.22
21956;BME280;11142;49.930;8.606;2023-04-27T12:53:17;100231.13;;;23.35;24.76
21956;BME280;11142;49.930;8.606;2023-04-27T12:55:47;100226.81;;;28.71;20.86
21956;BME280;11142;49.930;8.606;2023-04-27T12:58:15;100231.09;;;33.00;17.58
21956;BME280;11142;49.930;8.606;2023-04-27T13:00:43;100231.13;;;34.66;15.38